Time;durP1;ratioP1;P1;durP2;ratioP2;P2;SDS_P1;SDS_P2;PMS_P1;PMS_P2;Temp;Humidity;BMP_temperature;BMP_pressure;BME280_temperature;BME280_humidity;BME280_pressure;Samples;Min_cycle;Max_cycle;Signal;HPM_P1;HPM_P2
2022/08/01 00:00:10;;;;;;;1.65;1.20;;;26.70;43.40;;;;;;5058036;28;20056;-49
2022/08/01 00:02:40;;;;;;;2.63;1.30;;;26.70;43.40;;;;;;5056941;28;20033;-49
2022/08/01 00:05:08;;;;;;;1.83;1.15;;;26.70;43.60;;;;;;5054862;28;20047;-49
2022/08/01 00:07:34;;;;;;;2.15;1.50;;;26.70;43.60;;;;;;5058631;28;20036;-58
2022/08/01 00:10:01;;;;;;;2.67;1.40;;;26.70;43.40;;;;;;5050975;28;20738;-50
2022/08/01 00:12:27;;;;;;;3.35;1.48;;;26.70;43.50;;;;;;5043472;28;20017;-51
2022/08/01 00:14:52;;;;;;;1.83;1.50;;;26.70;43.50;;;;;;5039276;28;20125;-47
2022/08/01 00:17:18;;;;;;;1.33;1.23;;;26.70;43.60;;;;;;5041898;28;20025;-50
2022/08/01 00:19:44;;;;;;;2.15;1.60;;;26.60;43.50;;;;;;5044780;28;20025;-46
2022/08/01 00:22:09;;;;;;;1.75;1.27;;;26.70;43.60;;;;;;5041711;28;20036;-47
2022/08/01 00:24:35;;;;;;;2.58;1.50;;;26.60;43.50;;;;;;5041798;28;20077;-47
2022/08/01 00:27:01;;;;;;;2.60;1.15;;;26.60;43.70;;;;;;5040733;28;20477;-50
2022/08/01 00:29:26;;;;;;;2.13;1.02;;;26.60;43.60;;;;;;5043246;28;20036;-51
2022/08/01 00:31:52;;;;;;;3.72;1.23;;;26.60;43.60;;;;;;5034016;28;20032;-52
2022/08/01 00:34:18;;;;;;;1.83;1.33;;;26.60;43.80;;;;;;5042593;28;20029;-48
2022/08/01 00:36:43;;;;;;;1.75;1.38;;;26.60;43.70;;;;;;5043166;28;20021;-50
2022/08/01 00:39:09;;;;;;;1.52;1.27;;;26.60;43.80;;;;;;5042334;28;20833;-51
2022/08/01 00:41:34;;;;;;;2.92;1.48;;;26.60;43.70;;;;;;5040319;28;20021;-47
2022/08/01 00:44:07;;;;;;;2.47;1.73;;;26.60;43.80;;;;;;5039715;28;20029;-53
2022/08/01 00:46:33;;;;;;;1.73;1.40;;;26.60;43.90;;;;;;5038230;28;20546;-48
2022/08/01 00:48:59;;;;;;;2.05;1.33;;;26.60;43.90;;;;;;5029724;28;20170;-47
2022/08/01 00:51:26;;;;;;;2.03;1.52;;;26.60;43.90;;;;;;5040298;28;20027;-48
2022/08/01 00:53:52;;;;;;;4.60;1.83;;;26.60;43.80;;;;;;5039970;28;20033;-62
2022/08/01 00:56:20;;;;;;;1.58;1.35;;;26.60;44.00;;;;;;5041798;28;20060;-50
2022/08/01 00:58:46;;;;;;;1.50;1.30;;;26.60;43.90;;;;;;5039935;28;20148;-47
2022/08/01 01:01:12;;;;;;;2.10;1.35;;;26.60;44.00;;;;;;5041458;28;20037;-53
2022/08/01 01:03:38;;;;;;;2.33;1.65;;;26.50;44.10;;;;;;5040722;28;20048;-50
2022/08/01 01:06:41;;;;;;;2.00;1.30;;;26.60;44.20;;;;;;5028948;28;20034;-51
2022/08/01 01:09:30;;;;;;;1.70;1.55;;;26.60;44.20;;;;;;5030470;28;20140;-54
2022/08/01 01:12:17;;;;;;;1.65;1.27;;;26.60;44.30;;;;;;5026864;28;20040;-49
2022/08/01 01:15:06;;;;;;;3.17;1.42;;;26.60;44.30;;;;;;5052465;28;20477;-49
2022/08/01 01:17:44;;;;;;;1.65;1.42;;;26.50;44.20;;;;;;5042145;28;20048;-50
2022/08/01 01:20:13;;;;;;;1.50;1.30;;;26.60;44.30;;;;;;5058141;28;20668;-50
2022/08/01 01:22:48;;;;;;;1.95;1.55;;;26.60;44.40;;;;;;5053119;28;20028;-48
2022/08/01 01:25:32;;;;;;;2.15;1.27;;;26.60;44.50;;;;;;5052686;28;20063;-48
2022/08/01 01:28:06;;;;;;;1.88;1.50;;;26.60;44.50;;;;;;5052100;28;20100;-54
2022/08/01 01:30:35;;;;;;;3.15;1.90;;;26.60;44.60;;;;;;5041995;28;20053;-48
2022/08/01 01:33:05;;;;;;;2.30;1.38;;;26.50;44.50;;;;;;5051882;28;20052;-49
2022/08/01 01:35:36;;;;;;;2.10;1.50;;;26.60;44.70;;;;;;5052871;28;20048;-48
2022/08/01 01:38:10;;;;;;;3.00;1.50;;;26.60;44.70;;;;;;5046082;28;20033;-60
2022/08/01 01:40:37;;;;;;;2.67;1.55;;;26.50;44.70;;;;;;5049190;28;20051;-51
2022/08/01 01:43:04;;;;;;;1.42;1.33;;;26.60;44.80;;;;;;5051363;28;20083;-49
2022/08/01 01:45:30;;;;;;;1.58;1.20;;;26.60;44.80;;;;;;5052010;28;20104;-50
2022/08/01 01:47:57;;;;;;;2.55;1.88;;;26.50;44.80;;;;;;5051252;28;20100;-52
2022/08/01 01:50:24;;;;;;;1.92;1.42;;;26.50;44.90;;;;;;5051038;28;20033;-49
2022/08/01 01:52:50;;;;;;;1.70;1.20;;;26.50;45.00;;;;;;5051524;28;20061;-60
2022/08/01 01:55:21;;;;;;;2.85;1.35;;;26.50;45.00;;;;;;5052130;28;20029;-48
2022/08/01 01:57:48;;;;;;;2.57;1.57;;;26.50;45.10;;;;;;5052547;28;20044;-47
2022/08/01 02:00:15;;;;;;;1.77;1.60;;;26.50;45.10;;;;;;5051199;28;20808;-48
2022/08/01 02:02:42;;;;;;;2.67;1.70;;;26.50;45.20;;;;;;5051120;28;20090;-48
2022/08/01 02:05:10;;;;;;;2.88;1.73;;;26.50;45.30;;;;;;5050617;28;20036;-48
2022/08/01 02:07:38;;;;;;;1.65;1.42;;;26.50;45.40;;;;;;5050344;28;20031;-49
2022/08/01 02:10:06;;;;;;;3.03;1.63;;;26.50;45.40;;;;;;5038809;28;20044;-49
2022/08/01 02:12:35;;;;;;;1.90;1.45;;;26.50;45.40;;;;;;5051828;28;20039;-49
2022/08/01 02:15:03;;;;;;;2.30;1.48;;;26.50;45.50;;;;;;5049051;28;20028;-51
2022/08/01 02:17:30;;;;;;;1.77;1.40;;;26.50;45.50;;;;;;5051197;28;20029;-50
2022/08/01 02:19:57;;;;;;;1.95;1.52;;;26.50;45.60;;;;;;5053873;28;20090;-51
2022/08/01 02:22:43;;;;;;;1.90;1.38;;;26.50;45.60;;;;;;5051402;28;20373;-48
2022/08/01 02:25:18;;;;;;;4.43;1.38;;;26.50;45.60;;;;;;5051114;28;20036;-48
2022/08/01 02:27:55;;;;;;;2.25;1.70;;;26.50;45.70;;;;;;5050593;28;20052;-48
2022/08/01 02:30:24;;;;;;;1.85;1.35;;;26.50;45.80;;;;;;5051871;28;20449;-49
2022/08/01 02:32:58;;;;;;;1.63;1.42;;;26.50;45.80;;;;;;5033831;28;20139;-60
2022/08/01 02:35:27;;;;;;;2.65;1.50;;;26.50;45.80;;;;;;5051938;28;20036;-52
2022/08/01 02:37:54;;;;;;;1.95;1.48;;;26.40;45.80;;;;;;5051092;28;20028;-60
2022/08/01 02:40:20;;;;;;;3.55;1.52;;;26.50;45.90;;;;;;5046352;28;20068;-48
2022/08/01 02:42:50;;;;;;;1.95;1.60;;;26.50;46.00;;;;;;5051687;28;20060;-49
2022/08/01 02:45:20;;;;;;;2.95;1.50;;;26.40;46.00;;;;;;5051448;28;20083;-48
2022/08/01 02:47:48;;;;;;;2.22;1.60;;;26.50;46.70;;;;;;5051289;28;20025;-51
2022/08/01 02:50:16;;;;;;;1.75;1.30;;;26.40;46.00;;;;;;5049967;28;20482;-57
2022/08/01 02:52:45;;;;;;;1.80;1.40;;;26.40;46.00;;;;;;5047692;28;20044;-48
2022/08/01 02:55:13;;;;;;;2.00;1.63;;;26.40;46.00;;;;;;5050046;28;20413;-50
2022/08/01 02:57:40;;;;;;;2.38;1.63;;;26.50;46.20;;;;;;5040028;28;20029;-50
2022/08/01 03:00:06;;;;;;;2.08;1.50;;;26.50;46.20;;;;;;5050363;28;20064;-52
2022/08/01 03:02:33;;;;;;;2.88;2.58;;;26.40;46.20;;;;;;5032236;28;20029;-52
2022/08/01 03:05:01;;;;;;;1.70;1.50;;;26.40;46.80;;;;;;5049572;28;20433;-52
2022/08/01 03:07:29;;;;;;;2.97;1.52;;;26.40;46.40;;;;;;5050720;28;20108;-53
2022/08/01 03:09:57;;;;;;;1.90;1.30;;;26.40;46.30;;;;;;5049946;28;20094;-52
2022/08/01 03:12:27;;;;;;;2.38;1.75;;;26.40;46.30;;;;;;5051114;28;20060;-49
2022/08/01 03:14:55;;;;;;;8.68;1.70;;;26.40;46.40;;;;;;5049769;28;20123;-60
2022/08/01 03:17:24;;;;;;;2.38;1.67;;;26.40;46.40;;;;;;5051098;28;20025;-48
2022/08/01 03:19:52;;;;;;;2.70;1.52;;;26.40;46.60;;;;;;5051853;28;20387;-59
2022/08/01 03:22:21;;;;;;;1.35;1.23;;;26.40;46.50;;;;;;5050866;28;20036;-49
2022/08/01 03:24:51;;;;;;;1.75;1.40;;;26.40;46.60;;;;;;5050843;28;20555;-48
2022/08/01 03:27:20;;;;;;;1.83;1.60;;;26.40;46.70;;;;;;5047253;28;20116;-55
2022/08/01 03:29:47;;;;;;;2.90;1.50;;;26.40;46.70;;;;;;5051220;28;20151;-48
2022/08/01 03:32:14;;;;;;;2.20;1.48;;;26.40;46.80;;;;;;5050113;28;20339;-49
2022/08/01 03:34:40;;;;;;;2.55;1.50;;;26.40;47.40;;;;;;5051064;28;20031;-48
2022/08/01 03:37:09;;;;;;;1.73;1.48;;;26.40;46.90;;;;;;5048717;28;20037;-49
2022/08/01 03:39:43;;;;;;;2.13;1.50;;;26.40;46.90;;;;;;5050220;28;20363;-51
2022/08/01 03:42:15;;;;;;;1.50;1.40;;;26.40;47.00;;;;;;5040269;28;20037;-47
2022/08/01 03:44:45;;;;;;;2.30;1.70;;;26.40;47.00;;;;;;5047819;28;20024;-49
2022/08/01 03:47:12;;;;;;;2.30;1.40;;;26.40;47.10;;;;;;5049054;28;20021;-48
2022/08/01 03:49:43;;;;;;;2.28;1.60;;;26.40;47.10;;;;;;5048698;28;20056;-48
2022/08/01 03:52:09;;;;;;;2.55;1.52;;;26.30;47.20;;;;;;5050371;28;20029;-51
2022/08/01 03:54:38;;;;;;;2.78;1.42;;;26.40;47.30;;;;;;5050217;28;20033;-49
2022/08/01 03:57:04;;;;;;;1.80;1.40;;;26.30;47.20;;;;;;5047114;28;20100;-55
2022/08/01 03:59:31;;;;;;;1.95;1.67;;;26.30;47.30;;;;;;5053830;28;20106;-52
2022/08/01 04:01:58;;;;;;;1.58;1.38;;;26.30;47.30;;;;;;5047955;28;20029;-49
2022/08/01 04:04:24;;;;;;;1.75;1.40;;;26.40;47.50;;;;;;5054105;28;20036;-51
2022/08/01 04:06:53;;;;;;;1.65;1.55;;;26.30;47.50;;;;;;5053882;28;20523;-54
2022/08/01 04:09:20;;;;;;;2.50;1.60;;;26.30;47.50;;;;;;5052353;28;20033;-53
2022/08/01 04:11:47;;;;;;;3.97;1.60;;;26.30;47.60;;;;;;5053257;28;20496;-50
2022/08/01 04:14:12;;;;;;;1.38;1.10;;;26.30;47.70;;;;;;5053076;28;20678;-50
2022/08/01 04:16:39;;;;;;;3.35;1.40;;;26.30;47.70;;;;;;5053993;28;20099;-48
2022/08/01 04:19:07;;;;;;;1.88;1.23;;;26.30;47.80;;;;;;5058357;28;20033;-48
2022/08/01 04:21:35;;;;;;;1.75;1.30;;;26.30;47.80;;;;;;5051802;28;20039;-50
2022/08/01 04:24:09;;;;;;;2.20;1.30;;;26.30;47.80;;;;;;5052511;28;20035;-48
2022/08/01 04:26:37;;;;;;;1.73;1.60;;;26.30;48.00;;;;;;5054306;28;20033;-48
2022/08/01 04:29:05;;;;;;;1.88;1.50;;;26.30;48.00;;;;;;5052953;28;20497;-48
2022/08/01 04:31:32;;;;;;;1.52;1.40;;;26.30;48.00;;;;;;5054113;28;20052;-48
2022/08/01 04:33:59;;;;;;;2.15;1.55;;;26.30;48.70;;;;;;5048741;28;20029;-48
2022/08/01 04:36:27;;;;;;;1.50;1.20;;;26.30;48.10;;;;;;5053908;28;20021;-48
2022/08/01 04:39:00;;;;;;;1.75;1.10;;;26.30;48.20;;;;;;5051408;28;20071;-60
2022/08/01 04:41:26;;;;;;;3.63;1.30;;;26.30;48.30;;;;;;5053946;28;20108;-48
2022/08/01 04:43:54;;;;;;;1.23;1.10;;;26.30;48.40;;;;;;5053577;28;20419;-48
2022/08/01 04:46:20;;;;;;;1.90;1.27;;;26.30;48.50;;;;;;5051581;28;20102;-49
2022/08/01 04:48:46;;;;;;;1.67;1.17;;;26.30;48.50;;;;;;5053682;28;20068;-49
2022/08/01 04:51:15;;;;;;;1.85;1.40;;;26.30;48.50;;;;;;5048413;28;20494;-50
2022/08/01 04:53:41;;;;;;;1.67;1.20;;;26.30;48.60;;;;;;5052924;28;20032;-48
2022/08/01 04:56:07;;;;;;;2.17;1.17;;;26.30;48.60;;;;;;5052614;28;20060;-48
2022/08/01 04:58:32;;;;;;;1.65;1.20;;;26.30;48.60;;;;;;5051692;28;20077;-49
2022/08/01 05:00:58;;;;;;;2.83;1.33;;;26.30;48.70;;;;;;5052148;28;20454;-50
2022/08/01 05:03:23;;;;;;;1.85;1.02;;;26.30;48.90;;;;;;5052789;28;20382;-48
2022/08/01 05:05:49;;;;;;;2.67;1.40;;;26.30;48.90;;;;;;5053049;28;20051;-52
2022/08/01 05:08:16;;;;;;;2.25;1.50;;;26.30;49.00;;;;;;5043138;28;20053;-54
2022/08/01 05:10:41;;;;;;;1.80;1.05;;;26.30;48.80;;;;;;5048122;28;20049;-48
2022/08/01 05:13:07;;;;;;;1.73;1.15;;;26.30;49.00;;;;;;5051767;28;20107;-48
2022/08/01 05:15:36;;;;;;;2.50;1.33;;;26.30;49.10;;;;;;5053692;28;20037;-47
2022/08/01 05:18:02;;;;;;;1.98;1.15;;;26.30;49.20;;;;;;5061360;28;20043;-47
2022/08/01 05:20:28;;;;;;;2.65;1.10;;;26.30;49.30;;;;;;5061106;28;20040;-46
2022/08/01 05:22:53;;;;;;;1.42;1.02;;;26.30;49.30;;;;;;5051649;28;20029;-60
2022/08/01 05:25:19;;;;;;;1.15;1.05;;;26.30;49.40;;;;;;5051709;28;20111;-48
2022/08/01 05:27:44;;;;;;;1.73;0.98;;;26.30;49.70;;;;;;5034853;28;20478;-50
2022/08/01 05:30:10;;;;;;;1.77;1.25;;;26.30;49.80;;;;;;5051907;28;20029;-48
2022/08/01 05:32:37;;;;;;;1.48;1.10;;;26.30;49.80;;;;;;5052922;28;20080;-48
2022/08/01 05:35:03;;;;;;;2.47;1.17;;;26.30;49.80;;;;;;5023407;28;20068;-48
2022/08/01 05:37:28;;;;;;;1.17;1.08;;;26.30;49.90;;;;;;5052809;28;20052;-51
2022/08/01 05:39:54;;;;;;;2.15;1.20;;;26.30;50.00;;;;;;5041988;28;20069;-60
2022/08/01 05:42:20;;;;;;;2.00;1.13;;;26.20;49.90;;;;;;5055273;28;20033;-50
2022/08/01 05:44:45;;;;;;;3.70;1.40;;;26.20;50.20;;;;;;5039023;28;20473;-49
2022/08/01 05:47:11;;;;;;;2.53;1.27;;;26.20;50.30;;;;;;5050083;28;20032;-51
2022/08/01 05:49:36;;;;;;;1.33;1.10;;;26.20;50.30;;;;;;5039073;28;20036;-50
2022/08/01 05:52:02;;;;;;;1.45;0.98;;;26.30;50.70;;;;;;5051618;28;20029;-48
2022/08/01 05:54:28;;;;;;;2.72;1.15;;;26.30;50.90;;;;;;5055652;28;20535;-50
2022/08/01 05:56:59;;;;;;;2.53;1.27;;;26.20;50.80;;;;;;5057336;28;20105;-63
2022/08/01 05:59:25;;;;;;;2.40;1.50;;;26.30;50.80;;;;;;5048194;28;20045;-53
2022/08/01 06:01:50;;;;;;;1.13;1.00;;;26.30;50.80;;;;;;5059205;28;20087;-49
2022/08/01 06:04:16;;;;;;;4.68;1.30;;;26.30;50.90;;;;;;5050861;28;20017;-49
2022/08/01 06:06:42;;;;;;;5.22;1.48;;;26.30;51.00;;;;;;5055463;28;20028;-53
2022/08/01 06:09:07;;;;;;;1.10;0.90;;;26.30;51.20;;;;;;5066107;28;20055;-56
2022/08/01 06:11:33;;;;;;;3.60;1.33;;;26.30;51.30;;;;;;5056515;28;20036;-52
2022/08/01 06:13:59;;;;;;;1.10;1.00;;;26.30;51.40;;;;;;5050934;28;20116;-51
2022/08/01 06:16:24;;;;;;;1.38;1.27;;;26.30;51.40;;;;;;5052072;28;20066;-48
2022/08/01 06:18:50;;;;;;;2.88;1.10;;;26.20;51.70;;;;;;5057687;28;20063;-50
2022/08/01 06:21:15;;;;;;;1.67;1.15;;;26.00;52.40;;;;;;5054984;28;20032;-47
2022/08/01 06:23:42;;;;;;;1.70;1.15;;;26.00;52.60;;;;;;5049947;28;20071;-48
2022/08/01 06:26:08;;;;;;;2.95;1.23;;;26.00;52.70;;;;;;5050804;28;20044;-51
2022/08/01 06:28:33;;;;;;;2.22;0.90;;;26.00;52.80;;;;;;5048665;28;20037;-50
2022/08/01 06:30:59;;;;;;;1.40;0.93;;;25.90;53.40;;;;;;5050432;28;20036;-58
2022/08/01 06:33:26;;;;;;;0.70;0.60;;;26.00;53.40;;;;;;5050409;28;20021;-49
2022/08/01 06:35:52;;;;;;;1.42;1.00;;;25.80;53.90;;;;;;5048928;28;20120;-51
2022/08/01 06:38:17;;;;;;;2.85;0.80;;;25.50;54.50;;;;;;5061134;28;20100;-49
2022/08/01 06:40:43;;;;;;;0.98;0.70;;;25.40;55.20;;;;;;5046281;28;20342;-48
2022/08/01 06:43:11;;;;;;;0.82;0.60;;;25.50;55.10;;;;;;5050879;28;20035;-48
2022/08/01 06:45:37;;;;;;;2.92;0.88;;;25.60;54.80;;;;;;5048445;28;20090;-49
2022/08/01 06:48:03;;;;;;;1.20;0.60;;;25.50;54.90;;;;;;5049412;28;20481;-51
2022/08/01 06:50:28;;;;;;;1.85;0.50;;;25.50;55.20;;;;;;5049427;28;20063;-49
2022/08/01 06:52:54;;;;;;;0.82;0.70;;;25.50;54.90;;;;;;5051198;28;20393;-48
2022/08/01 06:55:20;;;;;;;1.50;0.85;;;25.40;55.10;;;;;;5049975;28;20462;-51
2022/08/01 06:57:50;;;;;;;1.33;0.80;;;25.30;55.40;;;;;;5050559;28;20029;-59
2022/08/01 07:00:20;;;;;;;1.55;0.70;;;25.40;54.90;;;;;;5046740;28;20255;-51
2022/08/01 07:02:46;;;;;;;3.22;0.90;;;25.70;54.60;;;;;;5050210;28;20025;-49
2022/08/01 07:05:12;;;;;;;1.52;0.90;;;25.60;54.40;;;;;;5051033;28;20427;-50
2022/08/01 07:07:38;;;;;;;2.78;1.00;;;25.60;54.30;;;;;;5061694;28;20040;-51
2022/08/01 07:10:04;;;;;;;1.27;0.70;;;25.60;54.20;;;;;;5056921;28;20040;-49
2022/08/01 07:12:30;;;;;;;1.13;0.93;;;25.50;54.30;;;;;;5054775;28;20028;-54
2022/08/01 07:14:56;;;;;;;1.40;1.10;;;25.70;54.20;;;;;;5059349;28;20047;-57
2022/08/01 07:17:22;;;;;;;2.85;0.70;;;25.70;54.10;;;;;;5061624;28;20052;-51
2022/08/01 07:19:48;;;;;;;1.50;1.00;;;25.60;54.00;;;;;;5054162;28;20033;-50
2022/08/01 07:22:16;;;;;;;1.13;0.70;;;25.80;53.90;;;;;;5050455;28;20427;-52
2022/08/01 07:24:42;;;;;;;1.42;0.80;;;25.80;54.00;;;;;;5058228;28;20024;-52
2022/08/01 07:27:08;;;;;;;3.00;1.67;;;25.80;53.80;;;;;;5052813;28;20717;-52
2022/08/01 07:29:34;;;;;;;1.02;0.90;;;25.80;54.10;;;;;;5060045;28;20033;-48
2022/08/01 07:31:59;;;;;;;3.13;0.85;;;25.80;54.10;;;;;;5061377;28;20067;-60
2022/08/01 07:34:25;;;;;;;2.72;0.93;;;25.80;53.90;;;;;;5059773;28;20024;-52
2022/08/01 07:36:52;;;;;;;3.13;1.35;;;25.80;54.10;;;;;;5063255;28;20040;-53
2022/08/01 07:39:17;;;;;;;2.08;0.98;;;25.80;53.90;;;;;;5055263;28;20033;-50
2022/08/01 07:41:43;;;;;;;1.50;0.80;;;25.70;54.20;;;;;;5055988;28;20043;-51
2022/08/01 07:44:09;;;;;;;1.65;1.00;;;25.70;54.10;;;;;;5054901;28;20033;-50
2022/08/01 07:46:34;;;;;;;1.60;1.08;;;25.80;54.00;;;;;;5063855;28;20016;-52
2022/08/01 07:49:00;;;;;;;0.95;0.93;;;25.90;54.10;;;;;;5057558;28;20024;-61
2022/08/01 07:51:26;;;;;;;1.50;0.85;;;26.00;53.90;;;;;;5056686;28;20075;-51
2022/08/01 07:53:51;;;;;;;2.67;1.17;;;26.00;53.80;;;;;;5052770;28;20104;-50
2022/08/01 07:56:17;;;;;;;1.58;1.10;;;25.90;53.80;;;;;;5055948;28;20156;-49
2022/08/01 07:58:43;;;;;;;1.00;0.90;;;26.00;53.70;;;;;;5058214;28;20028;-49
2022/08/01 08:01:08;;;;;;;1.52;1.23;;;26.00;53.40;;;;;;5055769;28;20037;-48
2022/08/01 08:03:34;;;;;;;1.98;1.13;;;26.00;53.50;;;;;;5063140;28;20382;-48
2022/08/01 08:05:59;;;;;;;1.38;1.15;;;26.00;53.30;;;;;;5057301;28;20087;-60
2022/08/01 08:08:25;;;;;;;1.70;1.17;;;26.00;53.50;;;;;;5055603;28;20120;-49
2022/08/01 08:10:50;;;;;;;4.20;1.00;;;26.00;53.80;;;;;;5051988;28;20496;-51
2022/08/01 08:13:17;;;;;;;1.48;1.00;;;26.00;53.60;;;;;;5050850;28;20033;-51
2022/08/01 08:15:43;;;;;;;2.03;1.10;;;26.00;53.50;;;;;;5054268;28;20033;-53
2022/08/01 08:18:08;;;;;;;1.63;1.20;;;25.90;53.20;;;;;;5057085;28;20075;-52
2022/08/01 08:20:34;;;;;;;3.78;1.73;;;26.10;53.50;;;;;;5050126;28;20478;-49
2022/08/01 08:23:00;;;;;;;1.63;1.10;;;26.00;53.60;;;;;;5051014;28;20032;-57
2022/08/01 08:25:27;;;;;;;1.95;1.10;;;26.00;53.50;;;;;;5051139;28;20080;-53
2022/08/01 08:27:53;;;;;;;2.00;1.13;;;26.10;54.20;;;;;;5053132;28;20033;-49
2022/08/01 08:30:18;;;;;;;7.65;1.08;;;26.20;53.60;;;;;;5043015;28;20028;-48
2022/08/01 08:32:44;;;;;;;2.30;1.52;;;26.20;53.40;;;;;;5059000;28;20021;-49
2022/08/01 08:35:10;;;;;;;2.22;1.23;;;26.10;53.30;;;;;;5057847;28;20025;-50
2022/08/01 08:37:37;;;;;;;1.55;1.30;;;26.20;54.20;;;;;;5052674;28;20045;-48
2022/08/01 08:40:04;;;;;;;3.58;1.20;;;26.20;53.50;;;;;;5056064;28;20044;-48
2022/08/01 08:42:30;;;;;;;3.13;1.30;;;26.00;53.40;;;;;;5065390;28;20438;-54
2022/08/01 08:44:55;;;;;;;2.65;1.90;;;26.10;53.30;;;;;;5059720;28;20112;-47
2022/08/01 08:47:23;;;;;;;2.83;1.20;;;26.20;53.50;;;;;;5051156;28;20189;-49
2022/08/01 08:49:51;;;;;;;2.70;1.33;;;26.20;53.30;;;;;;5052105;28;20473;-47
2022/08/01 08:52:21;;;;;;;1.50;1.30;;;26.30;53.10;;;;;;5055149;28;20033;-47
2022/08/01 08:54:49;;;;;;;1.45;1.25;;;26.30;52.70;;;;;;5056997;28;20032;-47
2022/08/01 08:57:15;;;;;;;1.48;1.20;;;26.40;52.60;;;;;;5052302;28;20347;-46
2022/08/01 08:59:43;;;;;;;2.28;1.25;;;26.40;52.60;;;;;;5058170;28;20085;-52
2022/08/01 09:02:09;;;;;;;1.48;0.95;;;26.50;52.50;;;;;;5054209;28;20021;-47
2022/08/01 09:04:37;;;;;;;1.20;1.10;;;26.50;53.10;;;;;;5051165;28;20485;-49
2022/08/01 09:07:05;;;;;;;1.13;1.02;;;26.50;52.40;;;;;;5051618;28;20474;-52
2022/08/01 09:09:31;;;;;;;1.60;1.17;;;26.50;52.40;;;;;;5053749;28;20037;-47
2022/08/01 09:11:57;;;;;;;0.98;0.88;;;26.60;52.50;;;;;;5054903;28;20033;-47
2022/08/01 09:14:25;;;;;;;1.55;1.08;;;26.60;52.40;;;;;;5052431;28;20037;-48
2022/08/01 09:17:20;;;;;;;1.77;1.25;;;26.60;52.50;;;;;;5053999;28;20051;-50
2022/08/01 09:19:51;;;;;;;1.42;1.10;;;26.60;52.60;;;;;;5040015;28;20113;-47
2022/08/01 09:22:21;;;;;;;1.75;1.10;;;26.60;52.50;;;;;;5053546;28;20029;-48
2022/08/01 09:25:02;;;;;;;1.17;0.98;;;26.60;52.40;;;;;;5050431;28;20029;-47
2022/08/01 09:27:28;;;;;;;1.42;1.10;;;26.60;52.40;;;;;;5055217;28;20461;-47
2022/08/01 09:29:54;;;;;;;1.23;1.00;;;26.60;52.50;;;;;;5054108;28;20037;-47
2022/08/01 09:32:20;;;;;;;1.60;1.38;;;26.60;52.40;;;;;;5051277;28;20687;-51
2022/08/01 09:34:46;;;;;;;1.30;1.20;;;26.60;52.40;;;;;;5058427;28;20112;-50
2022/08/01 09:37:17;;;;;;;1.40;1.23;;;26.60;52.40;;;;;;5050657;28;20136;-48
2022/08/01 09:39:45;;;;;;;1.30;1.20;;;26.60;52.50;;;;;;5051904;28;20041;-48
2022/08/01 09:42:25;;;;;;;2.00;1.30;;;26.70;52.60;;;;;;5051364;28;20108;-46
2022/08/01 09:44:51;;;;;;;2.35;1.55;;;26.60;52.50;;;;;;5050412;28;20074;-52
2022/08/01 09:47:20;;;;;;;1.25;1.15;;;26.60;52.50;;;;;;5053582;28;20359;-48
2022/08/01 09:49:54;;;;;;;1.48;1.20;;;26.70;52.60;;;;;;5045187;28;20033;-49
2022/08/01 09:52:22;;;;;;;3.92;1.25;;;26.70;52.50;;;;;;5053816;28;20012;-48
2022/08/01 09:54:59;;;;;;;1.52;1.27;;;26.70;52.60;;;;;;5052450;28;20087;-46
2022/08/01 09:57:26;;;;;;;1.73;1.40;;;26.70;52.50;;;;;;5055000;28;20086;-55
2022/08/01 09:59:57;;;;;;;2.00;1.40;;;26.70;52.60;;;;;;5044908;28;20086;-48
2022/08/01 10:02:37;;;;;;;1.67;1.30;;;26.70;52.90;;;;;;5051404;28;20071;-51
2022/08/01 10:05:06;;;;;;;2.13;1.40;;;26.70;52.60;;;;;;5051220;28;20071;-50
2022/08/01 10:07:33;;;;;;;1.48;1.30;;;26.70;52.70;;;;;;5055118;28;20064;-49
2022/08/01 10:10:10;;;;;;;1.58;1.40;;;26.70;52.70;;;;;;5051879;28;20066;-58
2022/08/01 10:12:37;;;;;;;1.40;1.30;;;26.70;52.60;;;;;;5058847;28;20810;-48
2022/08/01 10:15:04;;;;;;;1.60;1.48;;;26.70;52.60;;;;;;5055214;28;20032;-50
2022/08/01 10:17:30;;;;;;;1.75;1.50;;;26.70;52.60;;;;;;5053062;28;20025;-47
2022/08/01 10:19:56;;;;;;;2.53;1.77;;;26.80;52.70;;;;;;5056929;28;20080;-49
2022/08/01 10:22:24;;;;;;;1.42;1.30;;;26.80;52.80;;;;;;5054900;28;20056;-47
2022/08/01 10:24:55;;;;;;;1.55;1.40;;;26.70;52.60;;;;;;5053955;28;20052;-49
2022/08/01 10:27:22;;;;;;;1.60;1.30;;;26.80;52.70;;;;;;5056253;28;20242;-48
2022/08/01 10:30:07;;;;;;;1.85;1.48;;;26.80;52.90;;;;;;5051702;28;20048;-47
2022/08/01 10:32:37;;;;;;;2.00;1.50;;;26.70;52.90;;;;;;5049976;28;20074;-55
2022/08/01 10:35:06;;;;;;;1.38;1.23;;;26.80;53.70;;;;;;5051721;28;20039;-48
2022/08/01 10:37:35;;;;;;;1.42;1.20;;;26.80;53.10;;;;;;5055255;28;20047;-47
2022/08/01 10:40:01;;;;;;;6.03;1.85;;;26.80;53.10;;;;;;5058462;28;20037;-56
2022/08/01 10:42:27;;;;;;;2.45;1.80;;;26.80;53.10;;;;;;5054463;28;20021;-50
2022/08/01 10:44:55;;;;;;;2.17;1.77;;;26.80;55.30;;;;;;5049973;28;20110;-47
2022/08/01 10:47:54;;;;;;;1.80;1.67;;;26.80;55.30;;;;;;5056384;28;20033;-49
2022/08/01 10:50:31;;;;;;;2.25;1.70;;;26.80;54.30;;;;;;5046995;28;20600;-49
2022/08/01 10:53:19;;;;;;;1.70;1.45;;;26.80;54.30;;;;;;5054078;28;20036;-52
2022/08/01 10:56:03;;;;;;;1.75;1.45;;;26.80;53.90;;;;;;5050369;28;20025;-50
2022/08/01 10:58:37;;;;;;;1.85;1.70;;;26.80;54.00;;;;;;5047152;28;20432;-50
2022/08/01 11:01:32;;;;;;;2.95;1.60;;;26.90;53.70;;;;;;5049859;28;20090;-58
2022/08/01 11:04:04;;;;;;;3.25;1.67;;;26.80;53.50;;;;;;5040240;28;20033;-52
2022/08/01 11:06:32;;;;;;;3.13;1.70;;;26.80;53.50;;;;;;5059068;28;20458;-50
2022/08/01 11:09:02;;;;;;;2.55;1.85;;;26.90;53.60;;;;;;5066179;28;20032;-48
2022/08/01 11:11:27;;;;;;;2.13;1.45;;;26.80;53.50;;;;;;5036618;28;20041;-47
2022/08/01 11:14:15;;;;;;;1.92;1.60;;;26.80;53.50;;;;;;5034610;28;20040;-52
2022/08/01 11:16:41;;;;;;;3.10;1.40;;;26.80;53.50;;;;;;5037233;28;20033;-51
2022/08/01 11:19:08;;;;;;;1.70;1.60;;;26.80;53.50;;;;;;5035221;28;20083;-51
2022/08/01 11:21:52;;;;;;;1.55;1.45;;;26.80;53.50;;;;;;5034724;28;20103;-48
2022/08/01 11:24:45;;;;;;;2.20;1.80;;;26.80;53.40;;;;;;5032798;28;20100;-51
2022/08/01 11:27:22;;;;;;;1.35;1.20;;;26.80;53.30;;;;;;5033011;28;20040;-48
2022/08/01 11:30:10;;;;;;;1.80;1.52;;;26.80;53.20;;;;;;4998371;28;20484;-50
2022/08/01 11:32:50;;;;;;;1.67;1.58;;;26.80;53.30;;;;;;5027168;28;20390;-47
2022/08/01 11:35:16;;;;;;;2.15;1.50;;;26.80;53.20;;;;;;5033185;28;20097;-50
2022/08/01 11:37:42;;;;;;;2.03;1.50;;;26.80;53.20;;;;;;5034112;28;20034;-52
2022/08/01 11:40:20;;;;;;;1.65;1.30;;;26.80;53.20;;;;;;5032996;28;20095;-51
2022/08/01 11:42:50;;;;;;;2.42;1.50;;;26.90;53.30;;;;;;5034206;28;20463;-54
2022/08/01 11:45:16;;;;;;;1.70;1.40;;;26.90;53.20;;;;;;5032583;28;20026;-50
2022/08/01 11:47:49;;;;;;;3.17;1.70;;;26.90;53.20;;;;;;5035471;28;20351;-48
2022/08/01 11:50:35;;;;;;;1.60;1.50;;;26.90;53.10;;;;;;5032907;28;20076;-49
2022/08/01 11:53:04;;;;;;;2.20;1.55;;;26.90;53.30;;;;;;5035929;28;20026;-57
2022/08/01 11:55:30;;;;;;;3.33;1.30;;;26.80;53.50;;;;;;5033505;28;20374;-48
2022/08/01 11:58:06;;;;;;;2.42;1.52;;;26.90;54.10;;;;;;5030904;28;20083;-48
2022/08/01 12:00:32;;;;;;;1.73;1.48;;;26.90;53.70;;;;;;5037807;28;20042;-46
2022/08/01 12:03:05;;;;;;;2.40;1.30;;;26.90;53.80;;;;;;5027843;28;20451;-48
2022/08/01 12:05:33;;;;;;;1.35;1.20;;;26.80;53.70;;;;;;5032034;28;20021;-49
2022/08/01 12:08:00;;;;;;;1.48;1.30;;;26.90;53.60;;;;;;5033355;28;20021;-47
2022/08/01 12:10:31;;;;;;;2.80;1.33;;;26.90;53.60;;;;;;5037917;28;20551;-48
2022/08/01 12:13:02;;;;;;;2.63;1.50;;;26.90;53.50;;;;;;5047308;28;20025;-48
2022/08/01 12:15:37;;;;;;;1.67;1.58;;;26.90;53.50;;;;;;5053648;28;20028;-47
2022/08/01 12:18:05;;;;;;;2.65;1.45;;;26.90;54.10;;;;;;5052787;28;20037;-60
2022/08/01 12:20:37;;;;;;;1.70;1.33;;;26.90;53.50;;;;;;5052844;28;20039;-48
2022/08/01 12:23:07;;;;;;;1.63;1.40;;;26.90;53.50;;;;;;5053184;28;20131;-57
2022/08/01 12:25:33;;;;;;;1.35;1.25;;;26.90;53.50;;;;;;5052965;28;20111;-46
2022/08/01 12:28:08;;;;;;;1.77;1.45;;;26.90;53.70;;;;;;5053084;28;20033;-47
2022/08/01 12:30:35;;;;;;;3.33;1.40;;;26.90;53.50;;;;;;5049644;28;20470;-51
2022/08/01 12:33:03;;;;;;;2.58;1.40;;;26.90;53.50;;;;;;5052269;28;20458;-59
2022/08/01 12:35:29;;;;;;;1.58;1.42;;;27.00;53.60;;;;;;5050434;28;20033;-48
2022/08/01 12:38:00;;;;;;;2.58;1.40;;;27.00;53.60;;;;;;5052879;28;20032;-51
2022/08/01 12:40:29;;;;;;;2.75;1.50;;;26.90;53.60;;;;;;5052230;28;20489;-49
2022/08/01 12:43:01;;;;;;;2.17;1.52;;;26.90;53.50;;;;;;5052510;28;20382;-51
2022/08/01 12:45:49;;;;;;;1.60;1.40;;;27.00;53.60;;;;;;5052714;28;20025;-51
2022/08/01 12:48:16;;;;;;;2.67;1.33;;;26.90;53.60;;;;;;5051325;28;20041;-51
2022/08/01 12:50:47;;;;;;;1.77;1.30;;;27.00;53.60;;;;;;5052861;28;20067;-48
2022/08/01 12:53:18;;;;;;;1.48;1.30;;;26.90;53.50;;;;;;5050471;28;20474;-48
2022/08/01 12:55:54;;;;;;;2.47;1.75;;;27.00;53.60;;;;;;5052473;28;20025;-47